createdAt,value
2019-05-21T00:00:28.159Z,83.80
2019-05-21T00:02:59.811Z,84.00
2019-05-21T00:05:32.177Z,84.20
2019-05-21T00:08:04.146Z,84.30
2019-05-21T00:10:35.879Z,84.50
2019-05-21T00:13:07.448Z,84.70
2019-05-21T00:15:39.494Z,84.90
2019-05-21T00:18:10.993Z,84.90
2019-05-21T00:20:42.241Z,85.20
2019-05-21T00:23:14.004Z,85.30
2019-05-21T00:25:45.372Z,85.50
2019-05-21T00:28:37.910Z,85.50
2019-05-21T00:31:45.204Z,85.70
2019-05-21T00:34:52.491Z,85.90
2019-05-21T00:38:00.051Z,85.90
2019-05-21T00:41:09.356Z,86.00
2019-05-21T00:43:53.437Z,86.20
2019-05-21T00:46:25.185Z,86.30
2019-05-21T00:48:57.121Z,86.60
2019-05-21T00:51:28.517Z,86.80
2019-05-21T00:53:59.832Z,87.00
2019-05-21T00:56:32.683Z,87.20
2019-05-21T00:59:03.986Z,87.30
2019-05-21T01:01:35.298Z,87.40
2019-05-21T01:04:06.616Z,87.30
2019-05-21T01:06:38.501Z,87.50
2019-05-21T01:09:10.289Z,87.70
2019-05-21T01:11:41.680Z,87.80
2019-05-21T01:14:16.226Z,87.90
2019-05-21T01:16:47.774Z,87.90
2019-05-21T01:19:19.270Z,88.00
2019-05-21T01:21:51.132Z,88.10
2019-05-21T01:24:22.690Z,88.00
2019-05-21T01:26:54.076Z,88.20
2019-05-21T01:29:25.963Z,88.20
2019-05-21T01:31:58.330Z,88.70
2019-05-21T01:34:29.847Z,88.70
2019-05-21T01:37:01.519Z,88.80
2019-05-21T01:39:33.162Z,88.80
2019-05-21T01:42:04.559Z,88.90
2019-05-21T01:44:35.864Z,88.70
2019-05-21T01:47:07.430Z,88.80
2019-05-21T01:49:38.799Z,88.60
2019-05-21T01:52:10.328Z,88.60
2019-05-21T01:54:42.167Z,88.50
2019-05-21T01:57:13.768Z,88.70
2019-05-21T01:59:45.165Z,88.70
2019-05-21T02:02:16.692Z,89.00
2019-05-21T02:04:48.152Z,89.20
2019-05-21T02:07:19.624Z,89.20
2019-05-21T02:10:00.178Z,89.30
2019-05-21T02:12:32.784Z,89.40
2019-05-21T02:15:04.583Z,89.40
2019-05-21T02:17:36.964Z,89.60
2019-05-21T02:20:08.837Z,89.50
2019-05-21T02:22:40.890Z,89.50
2019-05-21T02:25:13.041Z,89.60
2019-05-21T02:27:44.529Z,89.60
2019-05-21T02:30:16.287Z,89.80
2019-05-21T02:32:49.441Z,90.00
2019-05-21T02:35:21.001Z,90.00
2019-05-21T02:37:52.606Z,90.10
2019-05-21T02:40:24.143Z,90.10
2019-05-21T02:42:55.544Z,90.00
2019-05-21T02:45:26.891Z,89.70
2019-05-21T02:47:58.410Z,89.70
2019-05-21T02:50:30.083Z,89.70
2019-05-21T02:53:01.732Z,89.90
2019-05-21T02:55:33.199Z,90.00
2019-05-21T02:58:04.903Z,90.10
2019-05-21T03:00:54.232Z,90.10
2019-05-21T03:03:28.630Z,90.20
2019-05-21T03:06:13.154Z,90.20
2019-05-21T03:08:33.360Z,90.30
2019-05-21T03:11:05.668Z,90.30
2019-05-21T03:13:37.145Z,90.40
2019-05-21T03:16:08.511Z,90.40
2019-05-21T03:18:39.903Z,90.40
2019-05-21T03:21:11.279Z,90.50
2019-05-21T03:23:42.884Z,90.70
2019-05-21T03:26:14.267Z,90.70
2019-05-21T03:28:46.765Z,90.80
2019-05-21T03:31:18.130Z,90.80
2019-05-21T03:33:49.726Z,90.80
2019-05-21T03:36:32.492Z,90.70
2019-05-21T03:38:54.187Z,90.60
2019-05-21T03:41:25.756Z,90.50
2019-05-21T03:43:57.351Z,90.30
2019-05-21T03:46:28.949Z,90.00
2019-05-21T03:49:00.705Z,89.40
2019-05-21T03:51:32.179Z,88.50
2019-05-21T03:54:04.150Z,87.50
2019-05-21T03:56:35.490Z,86.60
2019-05-21T03:59:07.958Z,85.40
2019-05-21T04:01:39.292Z,84.40
2019-05-21T04:04:10.868Z,83.10
2019-05-21T04:06:51.875Z,81.70
2019-05-21T04:09:15.728Z,80.40
2019-05-21T04:11:47.246Z,79.30
2019-05-21T04:14:43.971Z,78.20
2019-05-21T04:17:26.162Z,77.10
2019-05-21T04:19:57.563Z,76.20
2019-05-21T04:22:28.814Z,75.20
2019-05-21T04:25:00.786Z,74.40
2019-05-21T04:27:33.663Z,73.60
2019-05-21T04:30:10.599Z,72.70
2019-05-21T04:32:40.240Z,71.80
2019-05-21T04:35:11.857Z,71.00
2019-05-21T04:37:43.929Z,70.30
2019-05-21T04:40:15.558Z,69.60
2019-05-21T04:42:47.053Z,69.20
2019-05-21T04:45:18.854Z,68.20
2019-05-21T04:47:50.382Z,67.60
2019-05-21T04:50:22.091Z,67.40
2019-05-21T04:52:53.688Z,67.50
2019-05-21T04:55:25.086Z,67.00
2019-05-21T04:57:56.576Z,66.30
2019-05-21T05:00:27.910Z,64.40
2019-05-21T05:03:01.396Z,64.40
2019-05-21T05:05:33.055Z,64.50
2019-05-21T05:08:05.323Z,64.50
2019-05-21T05:10:36.803Z,64.90
2019-05-21T05:13:08.197Z,62.70
2019-05-21T05:15:39.740Z,63.20
2019-05-21T05:18:11.325Z,63.50
2019-05-21T05:20:42.944Z,63.30
2019-05-21T05:23:14.585Z,63.60
2019-05-21T05:25:45.994Z,62.80
2019-05-21T05:28:18.863Z,62.20
2019-05-21T05:30:50.179Z,62.20
2019-05-21T05:33:21.609Z,62.10
2019-05-21T05:35:52.939Z,61.90
2019-05-21T05:38:24.289Z,62.20
2019-05-21T05:40:55.636Z,63.10
2019-05-21T05:43:27.005Z,63.90
2019-05-21T05:45:58.363Z,65.00
2019-05-21T05:48:31.922Z,65.60
2019-05-21T05:51:05.075Z,66.30
2019-05-21T05:53:55.377Z,67.10
2019-05-21T05:56:27.770Z,67.70
2019-05-21T05:58:59.305Z,68.10
2019-05-21T06:01:32.723Z,69.00
2019-05-21T06:04:04.141Z,69.80
2019-05-21T06:06:35.743Z,70.30
2019-05-21T06:09:07.617Z,70.80
2019-05-21T06:11:38.990Z,71.20
2019-05-21T06:14:10.474Z,71.90
2019-05-21T06:16:42.126Z,72.20
2019-05-21T06:19:13.496Z,72.60
2019-05-21T06:21:44.901Z,72.70
2019-05-21T06:24:16.358Z,73.00
2019-05-21T06:26:47.665Z,73.20
2019-05-21T06:29:19.212Z,73.70
2019-05-21T06:31:50.859Z,73.40
2019-05-21T06:34:22.283Z,73.50
2019-05-21T06:36:53.771Z,73.60
2019-05-21T06:39:25.132Z,74.60
2019-05-21T06:41:56.907Z,74.50
2019-05-21T06:44:28.545Z,75.20
2019-05-21T06:47:00.537Z,75.60
2019-05-21T06:49:31.950Z,75.90
2019-05-21T06:52:03.654Z,76.40
2019-05-21T06:54:35.194Z,76.70
2019-05-21T06:57:06.416Z,77.00
2019-05-21T06:59:37.838Z,77.20
2019-05-21T07:02:09.451Z,77.20
2019-05-21T07:04:40.734Z,77.40
2019-05-21T07:07:12.296Z,77.20
2019-05-21T07:09:43.810Z,77.50
2019-05-21T07:12:15.199Z,77.40
2019-05-21T07:14:46.728Z,77.20
2019-05-21T07:17:18.576Z,76.90
2019-05-21T07:19:50.013Z,76.70
2019-05-21T07:22:34.810Z,76.80
2019-05-21T07:25:02.075Z,76.70
2019-05-21T07:27:33.835Z,76.80
2019-05-21T07:30:05.841Z,77.10
2019-05-21T07:32:37.530Z,77.70
2019-05-21T07:35:09.649Z,78.00
2019-05-21T07:37:41.238Z,78.30
2019-05-21T07:40:13.198Z,78.80
2019-05-21T07:42:44.817Z,79.10
2019-05-21T07:45:17.916Z,79.50
2019-05-21T07:47:49.221Z,79.90
2019-05-21T07:50:20.659Z,80.00
2019-05-21T07:52:52.041Z,80.00
2019-05-21T07:55:24.008Z,80.00
2019-05-21T07:57:55.398Z,80.40
2019-05-21T08:00:27.886Z,80.60
2019-05-21T08:02:59.235Z,80.80
2019-05-21T08:05:30.825Z,81.00
2019-05-21T08:08:02.636Z,81.00
2019-05-21T08:10:34.410Z,81.10
2019-05-21T08:13:05.910Z,80.90
2019-05-21T08:15:37.278Z,81.10
2019-05-21T08:18:08.590Z,80.70
2019-05-21T08:20:40.172Z,80.70
2019-05-21T08:23:11.708Z,80.70
2019-05-21T08:25:43.411Z,80.70
2019-05-21T08:28:14.928Z,80.60
2019-05-21T08:30:47.390Z,80.80
2019-05-21T08:33:19.646Z,80.80
2019-05-21T08:35:52.892Z,80.80
2019-05-21T08:38:25.350Z,80.50
2019-05-21T08:40:56.554Z,79.60
2019-05-21T08:43:27.914Z,78.30
2019-05-21T08:45:59.207Z,77.50
2019-05-21T08:48:31.297Z,77.10
2019-05-21T08:51:02.769Z,76.70
2019-05-21T08:53:35.138Z,76.00
2019-05-21T08:56:06.947Z,75.50
2019-05-21T08:58:38.172Z,74.60
2019-05-21T09:01:09.632Z,74.50
2019-05-21T09:03:41.042Z,74.10
2019-05-21T09:06:12.708Z,73.60
2019-05-21T09:08:43.960Z,73.00
2019-05-21T09:11:15.348Z,72.30
2019-05-21T09:13:46.771Z,72.10
2019-05-21T09:16:18.182Z,71.60
2019-05-21T09:18:51.287Z,71.60
2019-05-21T09:21:22.805Z,71.80
2019-05-21T09:23:57.096Z,71.60
2019-05-21T09:26:28.514Z,71.60
2019-05-21T09:29:00.093Z,71.10
2019-05-21T09:31:31.584Z,70.30
2019-05-21T09:34:04.614Z,70.00
2019-05-21T09:36:36.470Z,69.30
2019-05-21T09:39:08.167Z,69.30
2019-05-21T09:41:39.903Z,69.20
2019-05-21T09:44:11.528Z,68.40
2019-05-21T09:46:43.356Z,67.60
2019-05-21T09:49:15.091Z,66.70
2019-05-21T09:51:46.377Z,66.20
2019-05-21T09:54:18.923Z,65.80
2019-05-21T09:56:50.437Z,65.20
2019-05-21T09:59:28.441Z,65.10
2019-05-21T10:02:04.642Z,65.00
2019-05-21T10:04:36.037Z,64.70
2019-05-21T10:07:07.298Z,64.60
2019-05-21T10:09:38.663Z,64.40
2019-05-21T10:12:10.226Z,64.30
2019-05-21T10:14:41.710Z,64.40
2019-05-21T10:17:16.575Z,64.00
2019-05-21T10:19:47.905Z,63.10
2019-05-21T10:22:20.349Z,62.60
2019-05-21T10:24:51.831Z,63.30
2019-05-21T10:27:23.215Z,63.60
2019-05-21T10:29:54.858Z,63.40
2019-05-21T10:32:26.139Z,62.20
2019-05-21T10:34:57.690Z,61.80
2019-05-21T10:37:29.458Z,61.70
2019-05-21T10:40:01.163Z,61.20
2019-05-21T10:42:32.781Z,60.30
2019-05-21T10:45:04.929Z,60.20
2019-05-21T10:47:36.370Z,59.90
2019-05-21T10:50:08.196Z,58.80
2019-05-21T10:52:39.751Z,58.60
2019-05-21T10:55:16.460Z,58.40
2019-05-21T10:57:47.707Z,58.20
2019-05-21T11:00:22.950Z,58.50
2019-05-21T11:03:04.855Z,59.20
2019-05-21T11:05:38.613Z,59.50
2019-05-21T11:08:23.330Z,58.10
2019-05-21T11:10:43.227Z,58.60
2019-05-21T11:13:14.996Z,58.30
2019-05-21T11:15:46.594Z,57.60
2019-05-21T11:18:18.210Z,56.80
2019-05-21T11:20:49.785Z,56.40
2019-05-21T11:23:21.106Z,56.10
2019-05-21T11:25:52.982Z,56.00
2019-05-21T11:28:24.473Z,56.50
2019-05-21T11:30:55.869Z,57.20
2019-05-21T11:33:27.554Z,57.90
2019-05-21T11:36:03.104Z,57.90
2019-05-21T11:38:40.066Z,57.90
2019-05-21T11:41:07.496Z,57.40
2019-05-21T11:43:39.120Z,56.40
2019-05-21T11:46:10.378Z,56.20
2019-05-21T11:48:41.767Z,56.20
2019-05-21T11:51:13.570Z,56.10
2019-05-21T11:53:45.230Z,56.10
2019-05-21T11:56:16.696Z,56.20
2019-05-21T11:58:49.201Z,56.70
2019-05-21T12:01:20.468Z,56.70
2019-05-21T12:03:52.001Z,56.50
2019-05-21T12:06:23.298Z,56.40
2019-05-21T12:08:57.131Z,56.20
2019-05-21T12:11:27.775Z,56.00
2019-05-21T12:13:59.350Z,56.10
2019-05-21T12:16:30.937Z,56.00
2019-05-21T12:19:02.206Z,56.20
2019-05-21T12:21:33.580Z,55.40
2019-05-21T12:24:05.472Z,55.40
2019-05-21T12:26:36.944Z,55.50
2019-05-21T12:29:08.398Z,55.40
2019-05-21T12:31:40.081Z,55.90
2019-05-21T12:34:11.756Z,56.10
2019-05-21T12:36:43.301Z,55.40
2019-05-21T12:39:15.102Z,55.10
2019-05-21T12:41:46.618Z,55.20
2019-05-21T12:44:17.867Z,55.30
2019-05-21T12:46:49.364Z,55.80
2019-05-21T12:49:20.726Z,55.50
2019-05-21T12:51:52.297Z,55.20
2019-05-21T12:54:23.803Z,55.00
2019-05-21T12:56:55.155Z,55.40
2019-05-21T12:59:26.426Z,55.70
2019-05-21T13:01:57.769Z,55.70
2019-05-21T13:04:30.171Z,55.40
2019-05-21T13:07:01.885Z,55.50
2019-05-21T13:09:33.375Z,55.50
2019-05-21T13:12:05.954Z,55.40
2019-05-21T13:14:37.426Z,54.60
2019-05-21T13:17:08.785Z,54.60
2019-05-21T13:19:40.131Z,55.10
2019-05-21T13:22:11.704Z,55.60
2019-05-21T13:24:43.467Z,56.80
2019-05-21T13:27:14.862Z,56.70
2019-05-21T13:29:46.680Z,57.00
2019-05-21T13:32:18.161Z,57.50
2019-05-21T13:34:49.784Z,57.50
2019-05-21T13:37:22.575Z,56.20
2019-05-21T13:39:54.548Z,56.30
2019-05-21T13:42:26.008Z,56.20
2019-05-21T13:44:58.610Z,56.60
2019-05-21T13:47:30.309Z,56.70
2019-05-21T13:50:05.513Z,56.60
2019-05-21T13:52:37.287Z,56.90
2019-05-21T13:55:09.163Z,56.80
2019-05-21T13:57:40.556Z,56.30
2019-05-21T14:00:18.041Z,55.80
2019-05-21T14:02:51.102Z,55.30
2019-05-21T14:05:24.538Z,55.30
2019-05-21T14:07:55.942Z,55.00
2019-05-21T14:10:28.181Z,55.20
2019-05-21T14:12:59.798Z,56.20
2019-05-21T14:15:31.526Z,56.10
2019-05-21T14:18:03.164Z,57.00
2019-05-21T14:20:34.629Z,57.30
2019-05-21T14:23:06.316Z,57.80
2019-05-21T14:25:37.901Z,57.90
2019-05-21T14:28:09.581Z,58.20
2019-05-21T14:30:41.070Z,58.70
2019-05-21T14:33:12.619Z,58.90
2019-05-21T14:35:44.185Z,58.80
2019-05-21T14:38:15.734Z,58.40
2019-05-21T14:40:47.225Z,58.40
2019-05-21T14:43:18.604Z,57.90
2019-05-21T14:45:49.986Z,57.50
2019-05-21T14:48:21.426Z,57.50
2019-05-21T14:50:52.894Z,57.60
2019-05-21T14:53:26.010Z,57.10
2019-05-21T14:55:57.414Z,56.70
2019-05-21T14:58:29.073Z,56.70
2019-05-21T15:01:00.590Z,56.10
2019-05-21T15:03:31.875Z,56.00
2019-05-21T15:06:03.166Z,55.80
2019-05-21T15:08:34.859Z,55.70
2019-05-21T15:11:06.132Z,55.10
2019-05-21T15:13:37.826Z,55.00
2019-05-21T15:16:09.204Z,54.50
2019-05-21T15:18:41.506Z,54.40
2019-05-21T15:21:18.782Z,53.40
2019-05-21T15:23:50.263Z,53.10
2019-05-21T15:26:22.712Z,53.50
2019-05-21T15:28:54.090Z,55.20
2019-05-21T15:31:25.789Z,57.00
2019-05-21T15:33:57.535Z,58.50
2019-05-21T15:36:28.799Z,60.60
2019-05-21T15:39:00.358Z,62.50
2019-05-21T15:41:32.571Z,64.30
2019-05-21T15:44:04.788Z,66.20
2019-05-21T15:46:47.793Z,67.40
2019-05-21T15:49:10.561Z,68.60
2019-05-21T15:51:42.116Z,69.70
2019-05-21T15:54:13.507Z,70.60
2019-05-21T15:56:44.825Z,71.40
2019-05-21T15:59:17.196Z,72.20
2019-05-21T16:01:48.847Z,73.00
2019-05-21T16:04:20.103Z,73.70
2019-05-21T16:06:51.572Z,74.20
2019-05-21T16:09:23.405Z,74.70
2019-05-21T16:11:56.973Z,75.10
2019-05-21T16:14:29.582Z,75.40
2019-05-21T16:17:01.047Z,75.60
2019-05-21T16:19:32.368Z,76.00
2019-05-21T16:22:03.636Z,76.30
2019-05-21T16:24:35.410Z,76.70
2019-05-21T16:27:06.805Z,77.10
2019-05-21T16:29:38.101Z,77.90
2019-05-21T16:32:09.568Z,78.40
2019-05-21T16:34:42.204Z,78.80
2019-05-21T16:37:14.602Z,79.40
2019-05-21T16:39:45.905Z,80.00
2019-05-21T16:42:18.335Z,80.30
2019-05-21T16:44:49.969Z,80.70
2019-05-21T16:47:21.242Z,81.10
2019-05-21T16:49:53.924Z,81.40
2019-05-21T16:52:26.377Z,81.10
2019-05-21T16:54:57.750Z,81.70
2019-05-21T16:57:29.374Z,82.00
2019-05-21T17:00:00.651Z,82.30
2019-05-21T17:02:33.998Z,82.50
2019-05-21T17:05:05.686Z,82.60
2019-05-21T17:07:37.004Z,83.00
2019-05-21T17:10:08.798Z,83.50
2019-05-21T17:12:40.306Z,83.40
2019-05-21T17:15:12.125Z,84.20
2019-05-21T17:17:45.063Z,86.60
2019-05-21T17:20:17.587Z,88.70
2019-05-21T17:22:48.901Z,90.20
2019-05-21T17:25:20.411Z,90.50
2019-05-21T17:27:52.011Z,90.90
2019-05-21T17:30:23.882Z,91.10
2019-05-21T17:32:55.418Z,91.30
2019-05-21T17:35:26.978Z,91.50
2019-05-21T17:38:00.856Z,91.70
2019-05-21T17:40:32.975Z,91.70
2019-05-21T17:43:06.013Z,91.80
2019-05-21T17:45:37.310Z,91.90
2019-05-21T17:48:08.661Z,92.00
2019-05-21T17:50:40.157Z,92.40
2019-05-21T17:53:13.128Z,92.00
2019-05-21T17:55:44.925Z,92.00
2019-05-21T17:58:16.454Z,92.30
2019-05-21T18:00:54.200Z,91.90
2019-05-21T18:03:25.798Z,91.90
2019-05-21T18:05:58.288Z,91.90
2019-05-21T18:08:30.264Z,91.80
2019-05-21T18:11:02.229Z,92.00
2019-05-21T18:13:33.981Z,91.80
2019-05-21T18:16:07.134Z,91.50
2019-05-21T18:18:39.292Z,91.10
2019-05-21T18:21:11.147Z,91.00
2019-05-21T18:23:43.298Z,91.00
2019-05-21T18:26:15.100Z,91.20
2019-05-21T18:28:46.389Z,90.80
2019-05-21T18:31:18.536Z,90.80
2019-05-21T18:33:50.705Z,90.90
2019-05-21T18:36:22.193Z,90.70
2019-05-21T18:38:53.888Z,90.60
2019-05-21T18:41:25.440Z,90.70
2019-05-21T18:43:56.818Z,90.60
2019-05-21T18:46:28.222Z,90.30
2019-05-21T18:48:59.609Z,90.00
2019-05-21T18:51:31.650Z,90.00
2019-05-21T18:54:03.161Z,90.20
2019-05-21T18:56:34.748Z,90.60
2019-05-21T18:59:06.245Z,91.00
2019-05-21T19:01:38.531Z,91.20
2019-05-21T19:04:10.341Z,91.40
2019-05-21T19:06:42.292Z,91.80
2019-05-21T19:09:15.720Z,91.70
2019-05-21T19:11:47.277Z,91.80
2019-05-21T19:14:18.552Z,91.70
2019-05-21T19:16:49.962Z,91.50
2019-05-21T19:19:21.668Z,91.50
2019-05-21T19:21:53.045Z,91.50
2019-05-21T19:24:25.035Z,91.60
2019-05-21T19:26:56.414Z,91.40
2019-05-21T19:29:27.730Z,91.40
2019-05-21T19:31:59.036Z,91.50
2019-05-21T19:34:30.598Z,91.90
2019-05-21T19:37:03.129Z,91.60
2019-05-21T19:39:36.194Z,91.70
2019-05-21T19:42:07.798Z,91.60
2019-05-21T19:44:39.307Z,91.70
2019-05-21T19:47:10.856Z,91.80
2019-05-21T19:49:43.082Z,91.80
2019-05-21T19:52:32.563Z,91.80
2019-05-21T19:55:03.645Z,91.90
2019-05-21T19:57:36.142Z,91.90
2019-05-21T20:00:08.484Z,91.90
2019-05-21T20:02:42.328Z,92.00
2019-05-21T20:05:14.611Z,92.00
2019-05-21T20:07:46.275Z,92.00
2019-05-21T20:10:20.398Z,92.00
2019-05-21T20:12:52.074Z,92.00
2019-05-21T20:15:35.122Z,92.00
2019-05-21T20:18:07.886Z,92.00
2019-05-21T20:20:40.191Z,92.00
2019-05-21T20:23:13.360Z,91.90
2019-05-21T20:25:56.163Z,91.90
2019-05-21T20:28:19.361Z,92.00
2019-05-21T20:30:51.624Z,91.90
2019-05-21T20:33:24.317Z,91.90
2019-05-21T20:35:57.469Z,92.00
2019-05-21T20:38:30.002Z,92.10
2019-05-21T20:41:01.514Z,92.10
2019-05-21T20:43:33.713Z,92.20
2019-05-21T20:46:07.447Z,92.20
2019-05-21T20:48:41.073Z,92.40
2019-05-21T20:51:12.555Z,92.40
2019-05-21T20:53:45.508Z,92.50
2019-05-21T20:56:18.573Z,92.50
2019-05-21T20:58:50.188Z,92.50
2019-05-21T21:01:21.626Z,92.40
2019-05-21T21:03:53.613Z,92.40
2019-05-21T21:06:35.253Z,92.30
2019-05-21T21:09:00.009Z,92.30
2019-05-21T21:11:32.590Z,92.20
2019-05-21T21:14:17.532Z,92.20
2019-05-21T21:16:38.077Z,92.10
2019-05-21T21:19:09.541Z,92.10
2019-05-21T21:21:41.220Z,92.10
2019-05-21T21:24:13.573Z,92.00
2019-05-21T21:26:45.477Z,92.00
2019-05-21T21:29:16.865Z,92.00
2019-05-21T21:31:48.700Z,91.90
2019-05-21T21:34:20.454Z,91.90
2019-05-21T21:36:53.256Z,92.00
2019-05-21T21:39:26.037Z,91.90
2019-05-21T21:41:59.473Z,91.90
2019-05-21T21:44:34.077Z,91.90
2019-05-21T21:47:04.339Z,91.90
2019-05-21T21:49:37.463Z,91.90
2019-05-21T21:52:09.921Z,91.90
2019-05-21T21:54:42.689Z,92.00
2019-05-21T21:57:14.454Z,91.90
2019-05-21T21:59:45.841Z,92.00
2019-05-21T22:02:26.721Z,92.10
2019-05-21T22:05:01.401Z,92.10
2019-05-21T22:07:37.537Z,92.10
2019-05-21T22:10:09.432Z,92.10
2019-05-21T22:12:41.383Z,92.10
2019-05-21T22:15:14.046Z,92.20
2019-05-21T22:17:47.232Z,92.20
2019-05-21T22:20:18.716Z,92.20
2019-05-21T22:22:50.264Z,92.20
2019-05-21T22:25:22.128Z,92.20
2019-05-21T22:27:53.772Z,92.20
2019-05-21T22:30:27.102Z,92.20
2019-05-21T22:32:58.285Z,92.30
2019-05-21T22:35:29.622Z,92.20
2019-05-21T22:38:01.260Z,92.20
2019-05-21T22:40:32.692Z,92.20
2019-05-21T22:43:04.125Z,92.10
2019-05-21T22:45:36.653Z,92.10
2019-05-21T22:48:08.673Z,92.00
2019-05-21T22:50:40.207Z,92.00
2019-05-21T22:53:12.530Z,92.00
2019-05-21T22:55:44.455Z,92.00
2019-05-21T22:58:15.886Z,92.00
2019-05-21T23:00:47.925Z,92.10
2019-05-21T23:03:20.627Z,92.10
2019-05-21T23:05:59.564Z,92.00
2019-05-21T23:08:31.749Z,92.00
2019-05-21T23:11:03.196Z,92.00
2019-05-21T23:13:35.694Z,91.90
2019-05-21T23:16:07.975Z,92.10
2019-05-21T23:18:57.989Z,92.10
2019-05-21T23:21:34.309Z,92.10
2019-05-21T23:24:07.288Z,92.00
2019-05-21T23:26:39.670Z,92.00
2019-05-21T23:29:12.647Z,92.00
2019-05-21T23:31:44.754Z,92.10
2019-05-21T23:34:18.025Z,92.10
2019-05-21T23:36:51.585Z,92.10
2019-05-21T23:39:26.411Z,92.20
2019-05-21T23:41:57.963Z,92.20
2019-05-21T23:44:29.735Z,92.20
2019-05-21T23:47:03.192Z,92.30
2019-05-21T23:49:34.598Z,92.30
2019-05-21T23:52:07.760Z,92.40
2019-05-21T23:54:39.315Z,92.50
2019-05-21T23:57:16.182Z,92.50
2019-05-21T23:59:48.046Z,92.50
